Sadan Bayraktar — TCRB — position and weather

sailwx.info

Track history (hours):
 
Tides and Currents Weather Stations Pressure Air Temp Water Temp Dewpoint Dewpoint Depression Visibility Wind Speed Wind Dir Waves Ship Positions

Sadan Bayraktar

Last reported at 2015-Sep-03 18:15 UTC. Time now 2015-Sep-04 14:32 UTC.
Position N 32°49' E 035°02'.

Length 116 m; draft 7.6 m.

Type: Ship. MMSI: 271000653.

Date/timePositionNaut miles runAvg speedWind from/ knotsBaromVisibWave heightAir tempDewpointWater temp
2015-Sep-03 18:15N 32°49' E 035°02'2 0.6
2015-Sep-03 15:27N 32°50' E 035°01'1 0.6
2015-Sep-03 14:31N 32°51' E 035°01'0 0.2
2015-Sep-03 13:29N 32°51' E 035°01'0 0.4
2015-Sep-03 12:32N 32°50' E 035°01'3210.1
2015-Sep-03 09:23N 32°57' E 034°24'1111.4
2015-Sep-03 08:25N 32°59' E 034°11'1511.5
2015-Sep-03 07:09N 33°03' E 033°54'3011.4
2015-Sep-03 04:33N 33°17' E 033°23'4610.7
2015-Sep-03 00:18N 33°39' E 032°35'910.8
2015-Sep-02 23:29N 33°43' E 032°26'1011.0
2015-Sep-02 22:33N 33°48' E 032°15'1111.3
2015-Sep-02 21:34N 33°53' E 032°03'1111.2
2015-Sep-02 20:33N 33°58' E 031°51'1111.1
2015-Sep-02 19:33N 34°04' E 031°39'1111.0
2015-Sep-02 18:33N 34°09' E 031°28'1111.1
2015-Sep-02 17:33N 34°14' E 031°16'1111.0
2015-Sep-02 16:33N 34°20' E 031°04'1310.9
2015-Sep-02 15:24N 34°25' E 030°51'3211.1
2015-Sep-02 12:28N 34°41' E 030°16'4511.2
2015-Sep-02 08:27N 35°02' E 029°27'1010.8
2015-Sep-02 07:29N 35°07' E 029°16'1010.7
2015-Sep-02 06:33N 35°11' E 029°05'4510.8
2015-Sep-02 02:25N 35°33' E 028°17'910.7
2015-Sep-02 01:33N 35°37' E 028°07'1110.8
2015-Sep-02 00:33N 35°42' E 027°56'1110.8
2015-Sep-01 23:33N 35°48' E 027°44'1211.2
2015-Sep-01 22:32N 35°56' E 027°34'3711.5
2015-Sep-01 19:15N 36°23' E 027°02'811.2
2015-Sep-01 18:33N 36°28' E 026°55'2310.8
2015-Sep-01 16:23N 36°44' E 026°33'911.2
2015-Sep-01 15:32N 36°50' E 026°24'1211.8
2015-Sep-01 14:33N 36°58' E 026°14'1211.6
2015-Sep-01 13:33N 37°08' E 026°07'2611.8
2015-Sep-01 11:22N 37°32' E 025°55'248 9.2
2015-Aug-31 08:33N 40°57' E 028°55'  
2015-Aug-29 03:33N 45°24' E 030°39'2411.1
2015-Aug-29 01:25N 45°46' E 030°50'910.7
2015-Aug-29 00:33N 45°55' E 030°55'1110.9
2015-Aug-28 23:33N 46°05' E 031°01'1010.1
2015-Aug-28 22:33N 46°14' E 030°56'1110.9
2015-Aug-28 21:33N 46°25' E 030°55'9 8.9
2015-Aug-28 20:33N 46°33' E 031°00'5 4.7
2015-Aug-28 19:33N 46°35' E 031°07'10 9.7
2015-Aug-28 18:33N 46°35' E 031°21'10 9.9
2015-Aug-28 17:33N 46°35' E 031°36'1110.5
2015-Aug-28 16:33N 46°37' E 031°51'8 8.5
2015-Aug-28 15:33N 46°45' E 031°54'10 9.8
2015-Aug-28 14:33N 46°54' E 032°00'3 2.9
2015-Aug-28 13:32N 46°56' E 032°01'0 0.0
2015-Aug-28 12:32N 46°56' E 032°01'0 0.0
2015-Aug-28 11:32N 46°56' E 032°01'0 0.0
2015-Aug-28 10:32N 46°56' E 032°01'0 0.0
2015-Aug-28 09:32N 46°56' E 032°01'0 0.0
2015-Aug-28 08:32N 46°56' E 032°01'0 0.0
2015-Aug-28 07:32N 46°56' E 032°01'0 0.0
2015-Aug-28 06:32N 46°56' E 032°01'0 0.0
2015-Aug-28 05:32N 46°56' E 032°01'0 0.0
2015-Aug-28 04:32N 46°56' E 032°01'0 0.0
2015-Aug-28 03:32N 46°56' E 032°01'0 0.0
2015-Aug-28 02:32N 46°56' E 032°01'0 0.0
2015-Aug-28 01:32N 46°56' E 032°01'0 0.0
2015-Aug-28 00:32N 46°56' E 032°01'0 0.0
2015-Aug-27 23:32N 46°56' E 032°01'0 0.0
2015-Aug-27 22:32N 46°56' E 032°01'0 0.0
2015-Aug-27 21:32N 46°56' E 032°01'0 0.0
2015-Aug-27 20:32N 46°56' E 032°01'0 0.0
2015-Aug-27 19:32N 46°56' E 032°01'0 0.0
2015-Aug-27 18:32N 46°56' E 032°01'0 0.0
2015-Aug-27 17:32N 46°56' E 032°01'0 0.0
2015-Aug-27 16:32N 46°56' E 032°01'0 0.0
2015-Aug-27 15:32N 46°56' E 032°01'0 0.0
2015-Aug-27 14:32N 46°56' E 032°01'0 0.0
2015-Aug-27 13:32N 46°56' E 032°01'0 0.0
2015-Aug-27 12:32N 46°56' E 032°01'0 0.0
2015-Aug-27 11:32N 46°56' E 032°01'0 0.0
2015-Aug-27 10:32N 46°56' E 032°01'0 0.0
2015-Aug-27 09:32N 46°56' E 032°01'0 0.0
2015-Aug-27 08:32N 46°56' E 032°01'0 0.0
2015-Aug-27 07:32N 46°56' E 032°01'0 0.0
2015-Aug-27 06:32N 46°56' E 032°01'0 0.0
2015-Aug-27 05:32N 46°56' E 032°01'0 0.0
2015-Aug-27 04:32N 46°56' E 032°01'0 0.0
2015-Aug-27 03:32N 46°56' E 032°01'0 0.0
2015-Aug-27 02:32N 46°56' E 032°01'0 0.0
2015-Aug-27 01:32N 46°56' E 032°01'0 0.0
2015-Aug-27 00:32N 46°56' E 032°01'0 0.0
2015-Aug-26 23:32N 46°56' E 032°01'0 0.0
2015-Aug-26 22:32N 46°56' E 032°01'0 0.0
2015-Aug-26 21:32N 46°56' E 032°01'0 0.0
2015-Aug-26 20:32N 46°56' E 032°01'0 0.0
2015-Aug-26 19:32N 46°56' E 032°01'0 0.0
2015-Aug-26 18:32N 46°56' E 032°01'0 0.0
2015-Aug-26 17:32N 46°56' E 032°01'0 0.0
2015-Aug-26 16:32N 46°56' E 032°01'0 0.0
2015-Aug-26 15:32N 46°56' E 032°01'0 0.0
2015-Aug-26 14:32N 46°56' E 032°01'0 0.0
2015-Aug-26 13:32N 46°56' E 032°01'0 0.0
2015-Aug-26 12:32N 46°56' E 032°01'0 0.0
2015-Aug-26 11:32N 46°56' E 032°01'0 0.0
2015-Aug-26 10:32N 46°56' E 032°01'0 0.0
2015-Aug-26 09:32N 46°56' E 032°01'0 0.0
2015-Aug-26 08:32N 46°56' E 032°01'0 0.0
2015-Aug-26 07:32N 46°56' E 032°01'0 0.0
2015-Aug-26 06:32N 46°56' E 032°01'1 0.8
2015-Aug-26 05:32N 46°56' E 031°60'0 0.0
2015-Aug-26 04:32N 46°56' E 032°00'0 0.0
2015-Aug-26 03:32N 46°56' E 031°60'1 0.7
2015-Aug-26 02:33N 46°56' E 032°01'9 9.2
2015-Aug-26 01:33N 46°48' E 031°54'1110.7
2015-Aug-26 00:33N 46°38' E 031°54'1211.8
2015-Aug-25 23:33N 46°35' E 031°37'10 9.6
2015-Aug-25 22:33N 46°35' E 031°23'9 9.0
2015-Aug-25 21:34N 46°35' E 031°10'10 9.5
2015-Aug-25 20:33N 46°31' E 030°57'7 6.9
2015-Aug-25 19:33N 46°24' E 030°57'8 6.6
2015-Aug-25 18:18N 46°18' E 031°04'0 0.1
2015-Aug-25 17:30N 46°18' E 031°04'0 0.1
2015-Aug-25 16:33N 46°18' E 031°04'0 0.1
2015-Aug-25 15:33N 46°18' E 031°04'  
Track history (hours):
 
Tides and Currents Weather Stations Pressure Air Temp Water Temp Dewpoint Dewpoint Depression Visibility Wind Speed Wind Dir Waves Ship Positions

Sadan Bayraktar

Last reported at 2015-Sep-03 18:15 UTC. Time now 2015-Sep-04 14:32 UTC.
Position N 32°49' E 035°02'.

Length 116 m; draft 7.6 m.

Type: Ship. MMSI: 271000653.

Date/timePositionNaut miles runAvg speedWind from/ knotsBaromVisibWave heightAir tempDewpointWater temp
2015-Sep-03 18:15N 32°49' E 035°02'2 0.6
2015-Sep-03 15:27N 32°50' E 035°01'1 0.6
2015-Sep-03 14:31N 32°51' E 035°01'0 0.2
2015-Sep-03 13:29N 32°51' E 035°01'0 0.4
2015-Sep-03 12:32N 32°50' E 035°01'3210.1
2015-Sep-03 09:23N 32°57' E 034°24'1111.4
2015-Sep-03 08:25N 32°59' E 034°11'1511.5
2015-Sep-03 07:09N 33°03' E 033°54'3011.4
2015-Sep-03 04:33N 33°17' E 033°23'4610.7
2015-Sep-03 00:18N 33°39' E 032°35'910.8
2015-Sep-02 23:29N 33°43' E 032°26'1011.0
2015-Sep-02 22:33N 33°48' E 032°15'1111.3
2015-Sep-02 21:34N 33°53' E 032°03'1111.2
2015-Sep-02 20:33N 33°58' E 031°51'1111.1
2015-Sep-02 19:33N 34°04' E 031°39'1111.0
2015-Sep-02 18:33N 34°09' E 031°28'1111.1
2015-Sep-02 17:33N 34°14' E 031°16'1111.0
2015-Sep-02 16:33N 34°20' E 031°04'1310.9
2015-Sep-02 15:24N 34°25' E 030°51'3211.1
2015-Sep-02 12:28N 34°41' E 030°16'4511.2
2015-Sep-02 08:27N 35°02' E 029°27'1010.8
2015-Sep-02 07:29N 35°07' E 029°16'1010.7
2015-Sep-02 06:33N 35°11' E 029°05'4510.8
2015-Sep-02 02:25N 35°33' E 028°17'910.7
2015-Sep-02 01:33N 35°37' E 028°07'1110.8
2015-Sep-02 00:33N 35°42' E 027°56'1110.8
2015-Sep-01 23:33N 35°48' E 027°44'1211.2
2015-Sep-01 22:32N 35°56' E 027°34'3711.5
2015-Sep-01 19:15N 36°23' E 027°02'811.2
2015-Sep-01 18:33N 36°28' E 026°55'2310.8
2015-Sep-01 16:23N 36°44' E 026°33'911.2
2015-Sep-01 15:32N 36°50' E 026°24'1211.8
2015-Sep-01 14:33N 36°58' E 026°14'1211.6
2015-Sep-01 13:33N 37°08' E 026°07'2611.8
2015-Sep-01 11:22N 37°32' E 025°55'248 9.2
2015-Aug-31 08:33N 40°57' E 028°55'  
2015-Aug-29 03:33N 45°24' E 030°39'2411.1
2015-Aug-29 01:25N 45°46' E 030°50'910.7
2015-Aug-29 00:33N 45°55' E 030°55'1110.9
2015-Aug-28 23:33N 46°05' E 031°01'1010.1
2015-Aug-28 22:33N 46°14' E 030°56'1110.9
2015-Aug-28 21:33N 46°25' E 030°55'9 8.9
2015-Aug-28 20:33N 46°33' E 031°00'5 4.7
2015-Aug-28 19:33N 46°35' E 031°07'10 9.7
2015-Aug-28 18:33N 46°35' E 031°21'10 9.9
2015-Aug-28 17:33N 46°35' E 031°36'1110.5
2015-Aug-28 16:33N 46°37' E 031°51'8 8.5
2015-Aug-28 15:33N 46°45' E 031°54'10 9.8
2015-Aug-28 14:33N 46°54' E 032°00'3 2.9
2015-Aug-28 13:32N 46°56' E 032°01'0 0.0
2015-Aug-28 12:32N 46°56' E 032°01'0 0.0
2015-Aug-28 11:32N 46°56' E 032°01'0 0.0
2015-Aug-28 10:32N 46°56' E 032°01'0 0.0
2015-Aug-28 09:32N 46°56' E 032°01'0 0.0
2015-Aug-28 08:32N 46°56' E 032°01'0 0.0
2015-Aug-28 07:32N 46°56' E 032°01'0 0.0
2015-Aug-28 06:32N 46°56' E 032°01'0 0.0
2015-Aug-28 05:32N 46°56' E 032°01'0 0.0
2015-Aug-28 04:32N 46°56' E 032°01'0 0.0
2015-Aug-28 03:32N 46°56' E 032°01'0 0.0
2015-Aug-28 02:32N 46°56' E 032°01'0 0.0
2015-Aug-28 01:32N 46°56' E 032°01'0 0.0
2015-Aug-28 00:32N 46°56' E 032°01'0 0.0
2015-Aug-27 23:32N 46°56' E 032°01'0 0.0
2015-Aug-27 22:32N 46°56' E 032°01'0 0.0
2015-Aug-27 21:32N 46°56' E 032°01'0 0.0
2015-Aug-27 20:32N 46°56' E 032°01'0 0.0
2015-Aug-27 19:32N 46°56' E 032°01'0 0.0
2015-Aug-27 18:32N 46°56' E 032°01'0 0.0
2015-Aug-27 17:32N 46°56' E 032°01'0 0.0
2015-Aug-27 16:32N 46°56' E 032°01'0 0.0
2015-Aug-27 15:32N 46°56' E 032°01'0 0.0
2015-Aug-27 14:32N 46°56' E 032°01'0 0.0
2015-Aug-27 13:32N 46°56' E 032°01'0 0.0
2015-Aug-27 12:32N 46°56' E 032°01'0 0.0
2015-Aug-27 11:32N 46°56' E 032°01'0 0.0
2015-Aug-27 10:32N 46°56' E 032°01'0 0.0
2015-Aug-27 09:32N 46°56' E 032°01'0 0.0
2015-Aug-27 08:32N 46°56' E 032°01'0 0.0
2015-Aug-27 07:32N 46°56' E 032°01'0 0.0
2015-Aug-27 06:32N 46°56' E 032°01'0 0.0
2015-Aug-27 05:32N 46°56' E 032°01'0 0.0
2015-Aug-27 04:32N 46°56' E 032°01'0 0.0
2015-Aug-27 03:32N 46°56' E 032°01'0 0.0
2015-Aug-27 02:32N 46°56' E 032°01'0 0.0
2015-Aug-27 01:32N 46°56' E 032°01'0 0.0
2015-Aug-27 00:32N 46°56' E 032°01'0 0.0
2015-Aug-26 23:32N 46°56' E 032°01'0 0.0
2015-Aug-26 22:32N 46°56' E 032°01'0 0.0
2015-Aug-26 21:32N 46°56' E 032°01'0 0.0
2015-Aug-26 20:32N 46°56' E 032°01'0 0.0
2015-Aug-26 19:32N 46°56' E 032°01'0 0.0
2015-Aug-26 18:32N 46°56' E 032°01'0 0.0
2015-Aug-26 17:32N 46°56' E 032°01'0 0.0
2015-Aug-26 16:32N 46°56' E 032°01'0 0.0
2015-Aug-26 15:32N 46°56' E 032°01'0 0.0
2015-Aug-26 14:32N 46°56' E 032°01'0 0.0
2015-Aug-26 13:32N 46°56' E 032°01'0 0.0
2015-Aug-26 12:32N 46°56' E 032°01'0 0.0
2015-Aug-26 11:32N 46°56' E 032°01'0 0.0
2015-Aug-26 10:32N 46°56' E 032°01'0 0.0
2015-Aug-26 09:32N 46°56' E 032°01'0 0.0
2015-Aug-26 08:32N 46°56' E 032°01'0 0.0
2015-Aug-26 07:32N 46°56' E 032°01'0 0.0
2015-Aug-26 06:32N 46°56' E 032°01'1 0.8
2015-Aug-26 05:32N 46°56' E 031°60'0 0.0
2015-Aug-26 04:32N 46°56' E 032°00'0 0.0
2015-Aug-26 03:32N 46°56' E 031°60'1 0.7
2015-Aug-26 02:33N 46°56' E 032°01'9 9.2
2015-Aug-26 01:33N 46°48' E 031°54'1110.7
2015-Aug-26 00:33N 46°38' E 031°54'1211.8
2015-Aug-25 23:33N 46°35' E 031°37'10 9.6
2015-Aug-25 22:33N 46°35' E 031°23'9 9.0
2015-Aug-25 21:34N 46°35' E 031°10'10 9.5
2015-Aug-25 20:33N 46°31' E 030°57'7 6.9
2015-Aug-25 19:33N 46°24' E 030°57'8 6.6
2015-Aug-25 18:18N 46°18' E 031°04'0 0.1
2015-Aug-25 17:30N 46°18' E 031°04'0 0.1
2015-Aug-25 16:33N 46°18' E 031°04'0 0.1
2015-Aug-25 15:33N 46°18' E 031°04'  

Dump ship's entire track history